sensor_id;sensor_type;location;lat;lon;timestamp;temperature;humidity
4910;DHT22;2470;49.868;8.660;2024-03-08T00:00:15;7.00;92.40
4910;DHT22;2470;49.868;8.660;2024-03-08T00:02:43;7.00;92.60
4910;DHT22;2470;49.868;8.660;2024-03-08T00:05:09;6.90;92.70
4910;DHT22;2470;49.868;8.660;2024-03-08T00:07:35;6.90;92.80
4910;DHT22;2470;49.868;8.660;2024-03-08T00:10:02;6.80;92.70
4910;DHT22;2470;49.868;8.660;2024-03-08T00:12:28;6.80;92.80
4910;DHT22;2470;49.868;8.660;2024-03-08T00:14:54;6.70;92.80
4910;DHT22;2470;49.868;8.660;2024-03-08T00:17:20;6.70;92.80
4910;DHT22;2470;49.868;8.660;2024-03-08T00:19:48;6.70;93.00
4910;DHT22;2470;49.868;8.660;2024-03-08T00:22:15;6.60;92.90
4910;DHT22;2470;49.868;8.660;2024-03-08T00:24:41;6.60;93.10
4910;DHT22;2470;49.868;8.660;2024-03-08T00:27:07;6.60;93.20
4910;DHT22;2470;49.868;8.660;2024-03-08T00:29:34;6.50;93.10
4910;DHT22;2470;49.868;8.660;2024-03-08T00:31:59;6.50;93.10
4910;DHT22;2470;49.868;8.660;2024-03-08T00:34:25;6.60;93.10
4910;DHT22;2470;49.868;8.660;2024-03-08T00:36:51;6.50;93.20
4910;DHT22;2470;49.868;8.660;2024-03-08T00:39:18;6.40;93.30
4910;DHT22;2470;49.868;8.660;2024-03-08T00:41:45;6.40;93.40
4910;DHT22;2470;49.868;8.660;2024-03-08T00:44:11;6.40;93.60
4910;DHT22;2470;49.868;8.660;2024-03-08T00:46:36;6.30;93.40
4910;DHT22;2470;49.868;8.660;2024-03-08T00:49:02;6.30;93.70
4910;DHT22;2470;49.868;8.660;2024-03-08T00:51:27;6.30;93.80
4910;DHT22;2470;49.868;8.660;2024-03-08T00:53:53;6.30;93.80
4910;DHT22;2470;49.868;8.660;2024-03-08T00:56:18;6.30;93.80
4910;DHT22;2470;49.868;8.660;2024-03-08T00:58:44;6.30;93.90
4910;DHT22;2470;49.868;8.660;2024-03-08T01:01:09;6.20;93.80
4910;DHT22;2470;49.868;8.660;2024-03-08T01:03:36;6.20;93.90
4910;DHT22;2470;49.868;8.660;2024-03-08T01:06:02;6.10;93.90
4910;DHT22;2470;49.868;8.660;2024-03-08T01:08:27;6.10;94.00
4910;DHT22;2470;49.868;8.660;2024-03-08T01:10:53;6.10;94.00
4910;DHT22;2470;49.868;8.660;2024-03-08T01:13:19;6.10;94.20
4910;DHT22;2470;49.868;8.660;2024-03-08T01:15:45;6.00;94.30
4910;DHT22;2470;49.868;8.660;2024-03-08T01:18:11;6.00;94.30
4910;DHT22;2470;49.868;8.660;2024-03-08T01:20:36;6.00;94.40
4910;DHT22;2470;49.868;8.660;2024-03-08T01:23:02;5.90;94.60
4910;DHT22;2470;49.868;8.660;2024-03-08T01:25:28;5.90;94.90
4910;DHT22;2470;49.868;8.660;2024-03-08T01:27:54;5.90;94.90
4910;DHT22;2470;49.868;8.660;2024-03-08T01:30:20;5.80;95.00
4910;DHT22;2470;49.868;8.660;2024-03-08T01:32:45;5.80;95.10
4910;DHT22;2470;49.868;8.660;2024-03-08T01:35:11;5.80;95.40
4910;DHT22;2470;49.868;8.660;2024-03-08T01:37:37;5.80;95.40
4910;DHT22;2470;49.868;8.660;2024-03-08T01:40:03;5.70;95.40
4910;DHT22;2470;49.868;8.660;2024-03-08T01:42:29;5.70;95.60
4910;DHT22;2470;49.868;8.660;2024-03-08T01:44:54;5.60;95.70
4910;DHT22;2470;49.868;8.660;2024-03-08T01:47:21;5.60;95.80
4910;DHT22;2470;49.868;8.660;2024-03-08T01:49:51;5.60;96.00
4910;DHT22;2470;49.868;8.660;2024-03-08T01:52:18;5.60;96.10
4910;DHT22;2470;49.868;8.660;2024-03-08T01:54:46;5.60;96.40
4910;DHT22;2470;49.868;8.660;2024-03-08T01:57:12;5.50;96.30
4910;DHT22;2470;49.868;8.660;2024-03-08T01:59:39;5.50;96.40
4910;DHT22;2470;49.868;8.660;2024-03-08T02:02:06;5.50;96.60
4910;DHT22;2470;49.868;8.660;2024-03-08T02:04:34;5.50;96.80
4910;DHT22;2470;49.868;8.660;2024-03-08T02:06:59;5.50;96.80
4910;DHT22;2470;49.868;8.660;2024-03-08T02:09:25;5.40;96.90
4910;DHT22;2470;49.868;8.660;2024-03-08T02:11:51;5.40;97.00
4910;DHT22;2470;49.868;8.660;2024-03-08T02:14:20;5.30;97.20
4910;DHT22;2470;49.868;8.660;2024-03-08T02:16:45;5.30;97.30
4910;DHT22;2470;49.868;8.660;2024-03-08T02:19:10;5.30;97.50
4910;DHT22;2470;49.868;8.660;2024-03-08T02:21:37;5.30;97.60
4910;DHT22;2470;49.868;8.660;2024-03-08T02:24:04;5.30;97.70
4910;DHT22;2470;49.868;8.660;2024-03-08T02:26:29;5.30;97.80
4910;DHT22;2470;49.868;8.660;2024-03-08T02:28:55;5.30;97.90
4910;DHT22;2470;49.868;8.660;2024-03-08T02:31:21;5.30;97.90
4910;DHT22;2470;49.868;8.660;2024-03-08T02:33:47;5.30;97.90
4910;DHT22;2470;49.868;8.660;2024-03-08T02:36:13;5.20;98.00
4910;DHT22;2470;49.868;8.660;2024-03-08T02:38:38;5.20;98.10
4910;DHT22;2470;49.868;8.660;2024-03-08T02:41:06;5.20;98.10
4910;DHT22;2470;49.868;8.660;2024-03-08T02:43:31;5.20;98.30
4910;DHT22;2470;49.868;8.660;2024-03-08T02:45:57;5.20;98.60
4910;DHT22;2470;49.868;8.660;2024-03-08T02:48:22;5.10;98.70
4910;DHT22;2470;49.868;8.660;2024-03-08T02:50:48;5.10;98.90
4910;DHT22;2470;49.868;8.660;2024-03-08T02:53:14;5.00;99.00
4910;DHT22;2470;49.868;8.660;2024-03-08T02:55:40;5.00;99.30
4910;DHT22;2470;49.868;8.660;2024-03-08T02:58:06;5.00;99.30
4910;DHT22;2470;49.868;8.660;2024-03-08T03:00:35;5.00;99.30
4910;DHT22;2470;49.868;8.660;2024-03-08T03:03:00;5.00;99.50
4910;DHT22;2470;49.868;8.660;2024-03-08T03:05:28;5.00;99.60
4910;DHT22;2470;49.868;8.660;2024-03-08T03:07:53;4.90;99.60
4910;DHT22;2470;49.868;8.660;2024-03-08T03:10:19;4.80;99.80
4910;DHT22;2470;49.868;8.660;2024-03-08T03:12:47;4.80;99.90
4910;DHT22;2470;49.868;8.660;2024-03-08T03:15:14;4.80;99.90
4910;DHT22;2470;49.868;8.660;2024-03-08T03:17:40;4.80;99.90
4910;DHT22;2470;49.868;8.660;2024-03-08T03:20:08;4.80;99.90
4910;DHT22;2470;49.868;8.660;2024-03-08T03:22:39;4.80;99.90
4910;DHT22;2470;49.868;8.660;2024-03-08T03:25:07;4.80;99.90
4910;DHT22;2470;49.868;8.660;2024-03-08T03:27:32;4.90;99.90
4910;DHT22;2470;49.868;8.660;2024-03-08T03:29:58;4.90;99.90
4910;DHT22;2470;49.868;8.660;2024-03-08T03:32:24;4.80;99.90
4910;DHT22;2470;49.868;8.660;2024-03-08T03:34:50;4.90;99.90
4910;DHT22;2470;49.868;8.660;2024-03-08T03:37:19;4.90;99.90
4910;DHT22;2470;49.868;8.660;2024-03-08T03:39:45;4.80;99.90
4910;DHT22;2470;49.868;8.660;2024-03-08T03:42:19;4.90;99.90
4910;DHT22;2470;49.868;8.660;2024-03-08T03:44:46;4.90;99.90
4910;DHT22;2470;49.868;8.660;2024-03-08T03:47:12;4.90;99.90
4910;DHT22;2470;49.868;8.660;2024-03-08T03:49:38;4.90;99.90
4910;DHT22;2470;49.868;8.660;2024-03-08T03:52:03;4.90;99.90
4910;DHT22;2470;49.868;8.660;2024-03-08T03:54:30;4.80;99.90
4910;DHT22;2470;49.868;8.660;2024-03-08T03:56:56;4.80;99.90
4910;DHT22;2470;49.868;8.660;2024-03-08T03:59:22;4.80;99.90
4910;DHT22;2470;49.868;8.660;2024-03-08T04:01:47;4.70;99.90
4910;DHT22;2470;49.868;8.660;2024-03-08T04:04:14;4.70;99.90
4910;DHT22;2470;49.868;8.660;2024-03-08T04:06:39;4.70;99.90
4910;DHT22;2470;49.868;8.660;2024-03-08T04:09:05;4.70;99.90
4910;DHT22;2470;49.868;8.660;2024-03-08T04:11:30;4.70;99.90
4910;DHT22;2470;49.868;8.660;2024-03-08T04:13:56;4.70;99.90
4910;DHT22;2470;49.868;8.660;2024-03-08T04:16:21;4.70;99.90
4910;DHT22;2470;49.868;8.660;2024-03-08T04:18:47;4.60;99.90
4910;DHT22;2470;49.868;8.660;2024-03-08T04:21:13;4.60;99.90
4910;DHT22;2470;49.868;8.660;2024-03-08T04:23:38;4.60;99.90
4910;DHT22;2470;49.868;8.660;2024-03-08T04:26:04;4.60;99.90
4910;DHT22;2470;49.868;8.660;2024-03-08T04:28:31;4.60;99.90
4910;DHT22;2470;49.868;8.660;2024-03-08T04:30:56;4.60;99.90
4910;DHT22;2470;49.868;8.660;2024-03-08T04:33:22;4.60;99.90
4910;DHT22;2470;49.868;8.660;2024-03-08T04:35:48;4.50;99.90
4910;DHT22;2470;49.868;8.660;2024-03-08T04:38:14;4.50;99.90
4910;DHT22;2470;49.868;8.660;2024-03-08T04:40:41;4.50;99.90
4910;DHT22;2470;49.868;8.660;2024-03-08T04:43:06;4.50;99.90
4910;DHT22;2470;49.868;8.660;2024-03-08T04:45:33;4.50;99.90
4910;DHT22;2470;49.868;8.660;2024-03-08T04:47:59;4.50;99.90
4910;DHT22;2470;49.868;8.660;2024-03-08T04:50:25;4.40;99.90
4910;DHT22;2470;49.868;8.660;2024-03-08T04:52:50;4.40;99.90
4910;DHT22;2470;49.868;8.660;2024-03-08T04:55:16;4.40;99.90
4910;DHT22;2470;49.868;8.660;2024-03-08T04:57:41;4.40;99.90
4910;DHT22;2470;49.868;8.660;2024-03-08T05:00:10;4.40;99.90
4910;DHT22;2470;49.868;8.660;2024-03-08T05:02:39;4.40;99.90
4910;DHT22;2470;49.868;8.660;2024-03-08T05:05:05;4.30;99.90
4910;DHT22;2470;49.868;8.660;2024-03-08T05:07:39;4.30;99.90
4910;DHT22;2470;49.868;8.660;2024-03-08T05:10:06;4.40;99.90
4910;DHT22;2470;49.868;8.660;2024-03-08T05:12:32;4.40;99.90
4910;DHT22;2470;49.868;8.660;2024-03-08T05:14:57;4.30;99.90
4910;DHT22;2470;49.868;8.660;2024-03-08T05:17:24;4.30;99.90
4910;DHT22;2470;49.868;8.660;2024-03-08T05:19:49;4.30;99.90
4910;DHT22;2470;49.868;8.660;2024-03-08T05:22:16;4.30;99.90
4910;DHT22;2470;49.868;8.660;2024-03-08T05:24:41;4.30;99.90
4910;DHT22;2470;49.868;8.660;2024-03-08T05:27:07;4.30;99.90
4910;DHT22;2470;49.868;8.660;2024-03-08T05:29:33;4.30;99.90
4910;DHT22;2470;49.868;8.660;2024-03-08T05:31:58;4.20;99.90
4910;DHT22;2470;49.868;8.660;2024-03-08T05:34:25;4.30;99.90
4910;DHT22;2470;49.868;8.660;2024-03-08T05:36:51;4.20;99.90
4910;DHT22;2470;49.868;8.660;2024-03-08T05:39:19;4.20;99.90
4910;DHT22;2470;49.868;8.660;2024-03-08T05:41:45;4.20;99.90
4910;DHT22;2470;49.868;8.660;2024-03-08T05:44:14;4.20;99.90
4910;DHT22;2470;49.868;8.660;2024-03-08T05:46:39;4.20;99.90
4910;DHT22;2470;49.868;8.660;2024-03-08T05:49:06;4.20;99.90
4910;DHT22;2470;49.868;8.660;2024-03-08T05:51:32;4.20;99.90
4910;DHT22;2470;49.868;8.660;2024-03-08T05:54:01;4.20;99.90
4910;DHT22;2470;49.868;8.660;2024-03-08T05:56:28;4.20;99.90
4910;DHT22;2470;49.868;8.660;2024-03-08T05:58:54;4.20;99.90
4910;DHT22;2470;49.868;8.660;2024-03-08T06:01:19;4.30;99.90
4910;DHT22;2470;49.868;8.660;2024-03-08T06:03:45;4.20;99.90
4910;DHT22;2470;49.868;8.660;2024-03-08T06:06:12;4.20;99.90
4910;DHT22;2470;49.868;8.660;2024-03-08T06:08:38;4.20;99.90
4910;DHT22;2470;49.868;8.660;2024-03-08T06:11:04;4.20;99.90
4910;DHT22;2470;49.868;8.660;2024-03-08T06:13:31;4.20;99.90
4910;DHT22;2470;49.868;8.660;2024-03-08T06:15:57;4.20;99.90
4910;DHT22;2470;49.868;8.660;2024-03-08T06:18:22;4.20;99.90
4910;DHT22;2470;49.868;8.660;2024-03-08T06:20:48;4.30;99.90
4910;DHT22;2470;49.868;8.660;2024-03-08T06:23:13;4.30;99.90
4910;DHT22;2470;49.868;8.660;2024-03-08T06:25:46;4.30;99.90
4910;DHT22;2470;49.868;8.660;2024-03-08T06:28:11;4.30;99.90
4910;DHT22;2470;49.868;8.660;2024-03-08T06:30:37;4.20;99.90
4910;DHT22;2470;49.868;8.660;2024-03-08T06:33:03;4.30;99.90
4910;DHT22;2470;49.868;8.660;2024-03-08T06:35:29;4.30;99.90
4910;DHT22;2470;49.868;8.660;2024-03-08T06:37:57;4.40;99.90
4910;DHT22;2470;49.868;8.660;2024-03-08T06:40:23;4.40;99.90
4910;DHT22;2470;49.868;8.660;2024-03-08T06:42:48;4.50;99.90
4910;DHT22;2470;49.868;8.660;2024-03-08T06:45:14;4.50;99.90
4910;DHT22;2470;49.868;8.660;2024-03-08T06:47:44;4.60;99.90
4910;DHT22;2470;49.868;8.660;2024-03-08T06:50:11;4.60;99.90
4910;DHT22;2470;49.868;8.660;2024-03-08T06:52:36;4.60;99.90
4910;DHT22;2470;49.868;8.660;2024-03-08T06:55:02;4.70;99.90
4910;DHT22;2470;49.868;8.660;2024-03-08T06:57:33;4.70;99.90
4910;DHT22;2470;49.868;8.660;2024-03-08T06:59:58;4.70;99.90
4910;DHT22;2470;49.868;8.660;2024-03-08T07:02:24;4.70;99.90
4910;DHT22;2470;49.868;8.660;2024-03-08T07:04:50;4.70;99.90
4910;DHT22;2470;49.868;8.660;2024-03-08T07:07:16;4.80;99.90
4910;DHT22;2470;49.868;8.660;2024-03-08T07:09:44;4.80;99.90
4910;DHT22;2470;49.868;8.660;2024-03-08T07:12:10;4.80;99.90
4910;DHT22;2470;49.868;8.660;2024-03-08T07:14:38;4.90;99.90
4910;DHT22;2470;49.868;8.660;2024-03-08T07:17:07;4.90;99.90
4910;DHT22;2470;49.868;8.660;2024-03-08T07:19:37;5.00;99.90
4910;DHT22;2470;49.868;8.660;2024-03-08T07:22:04;5.00;99.90
4910;DHT22;2470;49.868;8.660;2024-03-08T07:24:29;5.10;99.90
4910;DHT22;2470;49.868;8.660;2024-03-08T07:27:13;5.10;99.90
4910;DHT22;2470;49.868;8.660;2024-03-08T07:29:39;5.10;99.90
4910;DHT22;2470;49.868;8.660;2024-03-08T07:32:05;5.20;99.90
4910;DHT22;2470;49.868;8.660;2024-03-08T07:34:50;5.20;99.90
4910;DHT22;2470;49.868;8.660;2024-03-08T07:37:17;5.20;99.90
4910;DHT22;2470;49.868;8.660;2024-03-08T07:39:44;5.30;99.90
4910;DHT22;2470;49.868;8.660;2024-03-08T07:42:10;5.30;99.90
4910;DHT22;2470;49.868;8.660;2024-03-08T07:44:36;5.30;99.90
4910;DHT22;2470;49.868;8.660;2024-03-08T07:47:01;5.40;99.90
4910;DHT22;2470;49.868;8.660;2024-03-08T07:49:27;5.50;99.90
4910;DHT22;2470;49.868;8.660;2024-03-08T07:51:53;5.50;99.90
4910;DHT22;2470;49.868;8.660;2024-03-08T07:54:18;5.50;99.90
4910;DHT22;2470;49.868;8.660;2024-03-08T07:56:44;5.50;99.90
4910;DHT22;2470;49.868;8.660;2024-03-08T07:59:10;5.60;99.90
4910;DHT22;2470;49.868;8.660;2024-03-08T08:01:37;5.60;99.90
4910;DHT22;2470;49.868;8.660;2024-03-08T08:04:03;5.60;99.90
4910;DHT22;2470;49.868;8.660;2024-03-08T08:06:28;5.70;99.90
4910;DHT22;2470;49.868;8.660;2024-03-08T08:08:57;5.70;99.90
4910;DHT22;2470;49.868;8.660;2024-03-08T08:11:22;5.70;99.90
4910;DHT22;2470;49.868;8.660;2024-03-08T08:13:48;5.70;99.90
4910;DHT22;2470;49.868;8.660;2024-03-08T08:16:13;5.80;99.90
4910;DHT22;2470;49.868;8.660;2024-03-08T08:18:39;5.80;99.90
4910;DHT22;2470;49.868;8.660;2024-03-08T08:21:06;5.80;99.90
4910;DHT22;2470;49.868;8.660;2024-03-08T08:23:34;5.90;99.90
4910;DHT22;2470;49.868;8.660;2024-03-08T08:26:00;5.90;99.90
4910;DHT22;2470;49.868;8.660;2024-03-08T08:28:28;5.90;99.90
4910;DHT22;2470;49.868;8.660;2024-03-08T08:30:54;6.00;99.90
4910;DHT22;2470;49.868;8.660;2024-03-08T08:33:20;6.10;99.90
4910;DHT22;2470;49.868;8.660;2024-03-08T08:35:45;6.10;99.90
4910;DHT22;2470;49.868;8.660;2024-03-08T08:38:13;6.20;99.90
4910;DHT22;2470;49.868;8.660;2024-03-08T08:40:38;6.30;99.90
4910;DHT22;2470;49.868;8.660;2024-03-08T08:43:04;6.40;99.90
4910;DHT22;2470;49.868;8.660;2024-03-08T08:45:30;6.40;99.90
4910;DHT22;2470;49.868;8.660;2024-03-08T08:47:56;6.50;99.90
4910;DHT22;2470;49.868;8.660;2024-03-08T08:50:22;6.50;99.90
4910;DHT22;2470;49.868;8.660;2024-03-08T08:52:52;6.50;99.90
4910;DHT22;2470;49.868;8.660;2024-03-08T08:55:18;6.50;99.90
4910;DHT22;2470;49.868;8.660;2024-03-08T08:57:46;6.60;99.90
4910;DHT22;2470;49.868;8.660;2024-03-08T09:00:13;6.70;99.90
4910;DHT22;2470;49.868;8.660;2024-03-08T09:02:41;6.70;99.90
4910;DHT22;2470;49.868;8.660;2024-03-08T09:05:07;6.70;99.90
4910;DHT22;2470;49.868;8.660;2024-03-08T09:07:33;6.70;99.90
4910;DHT22;2470;49.868;8.660;2024-03-08T09:09:59;6.80;99.90
4910;DHT22;2470;49.868;8.660;2024-03-08T09:12:25;6.90;99.90
4910;DHT22;2470;49.868;8.660;2024-03-08T09:14:51;6.90;99.90
4910;DHT22;2470;49.868;8.660;2024-03-08T09:17:16;7.00;99.90
4910;DHT22;2470;49.868;8.660;2024-03-08T09:19:47;7.10;99.90
4910;DHT22;2470;49.868;8.660;2024-03-08T09:22:13;7.10;99.90
4910;DHT22;2470;49.868;8.660;2024-03-08T09:24:39;7.20;99.90
4910;DHT22;2470;49.868;8.660;2024-03-08T09:27:05;7.20;99.90
4910;DHT22;2470;49.868;8.660;2024-03-08T09:29:30;7.30;99.90
4910;DHT22;2470;49.868;8.660;2024-03-08T09:31:56;7.30;99.90
4910;DHT22;2470;49.868;8.660;2024-03-08T09:34:21;7.40;99.90
4910;DHT22;2470;49.868;8.660;2024-03-08T09:36:47;7.40;99.90
4910;DHT22;2470;49.868;8.660;2024-03-08T09:39:12;7.50;99.90
4910;DHT22;2470;49.868;8.660;2024-03-08T09:41:45;7.50;99.90
4910;DHT22;2470;49.868;8.660;2024-03-08T09:44:14;7.50;99.90
4910;DHT22;2470;49.868;8.660;2024-03-08T09:46:40;7.60;99.90
4910;DHT22;2470;49.868;8.660;2024-03-08T09:49:06;7.70;99.90
4910;DHT22;2470;49.868;8.660;2024-03-08T09:51:33;7.80;99.90
4910;DHT22;2470;49.868;8.660;2024-03-08T09:54:00;7.80;99.90
4910;DHT22;2470;49.868;8.660;2024-03-08T09:56:26;7.80;99.90
4910;DHT22;2470;49.868;8.660;2024-03-08T09:58:53;7.70;99.90
4910;DHT22;2470;49.868;8.660;2024-03-08T10:01:51;7.90;99.90
4910;DHT22;2470;49.868;8.660;2024-03-08T10:04:17;7.90;99.90
4910;DHT22;2470;49.868;8.660;2024-03-08T10:06:43;7.90;99.90
4910;DHT22;2470;49.868;8.660;2024-03-08T10:09:12;8.00;99.90
4910;DHT22;2470;49.868;8.660;2024-03-08T10:11:38;8.00;99.90
4910;DHT22;2470;49.868;8.660;2024-03-08T10:14:04;8.10;99.90
4910;DHT22;2470;49.868;8.660;2024-03-08T10:16:31;8.20;99.90
4910;DHT22;2470;49.868;8.660;2024-03-08T10:18:57;8.30;99.60
4910;DHT22;2470;49.868;8.660;2024-03-08T10:21:22;8.30;99.50
4910;DHT22;2470;49.868;8.660;2024-03-08T10:23:48;8.30;99.50
4910;DHT22;2470;49.868;8.660;2024-03-08T10:26:15;8.30;99.70
4910;DHT22;2470;49.868;8.660;2024-03-08T10:28:42;8.30;99.60
4910;DHT22;2470;49.868;8.660;2024-03-08T10:31:08;8.30;99.40
4910;DHT22;2470;49.868;8.660;2024-03-08T10:33:34;8.40;99.50
4910;DHT22;2470;49.868;8.660;2024-03-08T10:36:00;8.50;99.30
4910;DHT22;2470;49.868;8.660;2024-03-08T10:38:26;8.50;99.00
4910;DHT22;2470;49.868;8.660;2024-03-08T10:40:53;8.50;99.10
4910;DHT22;2470;49.868;8.660;2024-03-08T10:43:24;8.60;98.80
4910;DHT22;2470;49.868;8.660;2024-03-08T10:48:44;8.80;98.40
4910;DHT22;2470;49.868;8.660;2024-03-08T10:51:11;8.70;98.40
4910;DHT22;2470;49.868;8.660;2024-03-08T10:53:38;8.80;98.50
4910;DHT22;2470;49.868;8.660;2024-03-08T10:56:07;8.90;98.10
4910;DHT22;2470;49.868;8.660;2024-03-08T10:58:35;8.90;98.10
4910;DHT22;2470;49.868;8.660;2024-03-08T11:01:02;8.90;97.90
4910;DHT22;2470;49.868;8.660;2024-03-08T11:06:49;9.00;97.60
4910;DHT22;2470;49.868;8.660;2024-03-08T11:08:54;9.10;97.60
4910;DHT22;2470;49.868;8.660;2024-03-08T11:11:28;9.30;97.70
4910;DHT22;2470;49.868;8.660;2024-03-08T11:13:58;9.30;97.30
4910;DHT22;2470;49.868;8.660;2024-03-08T11:18:58;9.50;96.90
4910;DHT22;2470;49.868;8.660;2024-03-08T11:21:31;9.60;97.00
4910;DHT22;2470;49.868;8.660;2024-03-08T11:24:06;9.70;97.00
4910;DHT22;2470;49.868;8.660;2024-03-08T11:26:33;9.80;96.40
4910;DHT22;2470;49.868;8.660;2024-03-08T11:32:08;9.90;97.00
4910;DHT22;2470;49.868;8.660;2024-03-08T11:34:41;10.00;96.20
4910;DHT22;2470;49.868;8.660;2024-03-08T11:37:16;10.10;96.20
4910;DHT22;2470;49.868;8.660;2024-03-08T11:39:53;10.30;95.70
4910;DHT22;2470;49.868;8.660;2024-03-08T11:42:24;10.30;94.90
4910;DHT22;2470;49.868;8.660;2024-03-08T11:44:52;10.40;94.50
4910;DHT22;2470;49.868;8.660;2024-03-08T11:47:18;10.50;94.70
4910;DHT22;2470;49.868;8.660;2024-03-08T11:49:43;10.60;94.60
4910;DHT22;2470;49.868;8.660;2024-03-08T11:52:14;10.70;94.10
4910;DHT22;2470;49.868;8.660;2024-03-08T11:54:41;10.80;94.00
4910;DHT22;2470;49.868;8.660;2024-03-08T11:57:07;10.90;94.10
4910;DHT22;2470;49.868;8.660;2024-03-08T11:59:32;11.00;93.80
4910;DHT22;2470;49.868;8.660;2024-03-08T12:02:03;11.10;93.50
4910;DHT22;2470;49.868;8.660;2024-03-08T12:04:29;11.10;93.20
4910;DHT22;2470;49.868;8.660;2024-03-08T12:06:54;11.20;93.20
4910;DHT22;2470;49.868;8.660;2024-03-08T12:09:20;11.30;93.10
4910;DHT22;2470;49.868;8.660;2024-03-08T12:11:48;11.50;92.90
4910;DHT22;2470;49.868;8.660;2024-03-08T12:14:14;11.60;93.10
4910;DHT22;2470;49.868;8.660;2024-03-08T12:16:41;11.70;92.60
4910;DHT22;2470;49.868;8.660;2024-03-08T12:19:08;12.00;91.70
4910;DHT22;2470;49.868;8.660;2024-03-08T12:21:35;12.10;91.80
4910;DHT22;2470;49.868;8.660;2024-03-08T12:24:06;12.40;91.80
4910;DHT22;2470;49.868;8.660;2024-03-08T12:26:38;12.80;91.00
4910;DHT22;2470;49.868;8.660;2024-03-08T12:29:21;13.50;90.90
4910;DHT22;2470;49.868;8.660;2024-03-08T12:31:54;14.10;88.40
4910;DHT22;2470;49.868;8.660;2024-03-08T12:34:21;14.70;87.00
4910;DHT22;2470;49.868;8.660;2024-03-08T12:36:48;15.30;84.40
4910;DHT22;2470;49.868;8.660;2024-03-08T12:39:17;15.70;81.40
4910;DHT22;2470;49.868;8.660;2024-03-08T12:41:47;16.30;78.30
4910;DHT22;2470;49.868;8.660;2024-03-08T12:44:12;16.70;75.50
4910;DHT22;2470;49.868;8.660;2024-03-08T12:46:38;17.20;73.70
4910;DHT22;2470;49.868;8.660;2024-03-08T12:49:09;17.50;70.70
4910;DHT22;2470;49.868;8.660;2024-03-08T12:51:35;17.60;69.00
4910;DHT22;2470;49.868;8.660;2024-03-08T12:54:02;17.70;67.60
4910;DHT22;2470;49.868;8.660;2024-03-08T12:56:35;18.00;67.10
4910;DHT22;2470;49.868;8.660;2024-03-08T12:59:03;18.70;64.50
4910;DHT22;2470;49.868;8.660;2024-03-08T13:01:30;19.10;62.90
4910;DHT22;2470;49.868;8.660;2024-03-08T13:03:57;19.50;62.60
4910;DHT22;2470;49.868;8.660;2024-03-08T13:06:24;20.10;62.30
4910;DHT22;2470;49.868;8.660;2024-03-08T13:08:50;20.80;59.70
4910;DHT22;2470;49.868;8.660;2024-03-08T13:11:17;21.70;59.00
4910;DHT22;2470;49.868;8.660;2024-03-08T13:13:44;22.50;56.10
4910;DHT22;2470;49.868;8.660;2024-03-08T13:16:10;23.60;53.80
4910;DHT22;2470;49.868;8.660;2024-03-08T13:18:37;24.60;51.20
4910;DHT22;2470;49.868;8.660;2024-03-08T13:21:04;25.30;49.10
4910;DHT22;2470;49.868;8.660;2024-03-08T13:23:35;26.00;48.20
4910;DHT22;2470;49.868;8.660;2024-03-08T13:26:05;26.90;46.00
4910;DHT22;2470;49.868;8.660;2024-03-08T13:28:31;27.70;43.60
4910;DHT22;2470;49.868;8.660;2024-03-08T13:30:57;28.30;42.00
4910;DHT22;2470;49.868;8.660;2024-03-08T13:33:26;28.80;40.80
4910;DHT22;2470;49.868;8.660;2024-03-08T13:35:52;29.20;38.80
4910;DHT22;2470;49.868;8.660;2024-03-08T13:38:18;29.60;37.90
4910;DHT22;2470;49.868;8.660;2024-03-08T13:40:46;29.90;36.70
4910;DHT22;2470;49.868;8.660;2024-03-08T13:43:12;30.40;36.10
4910;DHT22;2470;49.868;8.660;2024-03-08T13:45:38;31.10;35.50
4910;DHT22;2470;49.868;8.660;2024-03-08T13:48:04;31.50;34.00
4910;DHT22;2470;49.868;8.660;2024-03-08T13:50:30;32.00;33.30
4910;DHT22;2470;49.868;8.660;2024-03-08T13:52:56;32.60;31.90
4910;DHT22;2470;49.868;8.660;2024-03-08T13:55:22;32.70;31.30
4910;DHT22;2470;49.868;8.660;2024-03-08T13:57:48;32.90;31.00
4910;DHT22;2470;49.868;8.660;2024-03-08T14:00:14;32.90;30.00
4910;DHT22;2470;49.868;8.660;2024-03-08T14:02:40;32.80;30.30
4910;DHT22;2470;49.868;8.660;2024-03-08T14:05:07;32.90;29.80
4910;DHT22;2470;49.868;8.660;2024-03-08T14:07:35;32.70;30.40
4910;DHT22;2470;49.868;8.660;2024-03-08T14:10:01;33.00;29.90
4910;DHT22;2470;49.868;8.660;2024-03-08T14:12:26;33.50;29.60
4910;DHT22;2470;49.868;8.660;2024-03-08T14:14:52;33.70;29.50
4910;DHT22;2470;49.868;8.660;2024-03-08T14:17:18;34.10;28.80
4910;DHT22;2470;49.868;8.660;2024-03-08T14:19:44;34.60;28.80
4910;DHT22;2470;49.868;8.660;2024-03-08T14:22:09;34.60;28.30
4910;DHT22;2470;49.868;8.660;2024-03-08T14:24:43;33.80;27.20
4910;DHT22;2470;49.868;8.660;2024-03-08T14:27:10;32.60;28.30
4910;DHT22;2470;49.868;8.660;2024-03-08T14:29:37;31.30;29.00
4910;DHT22;2470;49.868;8.660;2024-03-08T14:32:04;29.50;30.00
4910;DHT22;2470;49.868;8.660;2024-03-08T14:34:32;27.70;31.60
4910;DHT22;2470;49.868;8.660;2024-03-08T14:36:59;26.20;32.70
4910;DHT22;2470;49.868;8.660;2024-03-08T14:39:25;25.20;34.10
4910;DHT22;2470;49.868;8.660;2024-03-08T14:41:52;24.20;34.40
4910;DHT22;2470;49.868;8.660;2024-03-08T14:44:19;23.80;36.40
4910;DHT22;2470;49.868;8.660;2024-03-08T14:46:45;23.90;36.60
4910;DHT22;2470;49.868;8.660;2024-03-08T14:49:11;23.70;36.70
4910;DHT22;2470;49.868;8.660;2024-03-08T14:51:37;23.50;36.80
4910;DHT22;2470;49.868;8.660;2024-03-08T14:54:02;23.80;36.50
4910;DHT22;2470;49.868;8.660;2024-03-08T14:56:32;24.20;36.80
4910;DHT22;2470;49.868;8.660;2024-03-08T14:58:58;24.20;36.90
4910;DHT22;2470;49.868;8.660;2024-03-08T15:01:24;24.20;36.80
4910;DHT22;2470;49.868;8.660;2024-03-08T15:03:53;23.70;35.70
4910;DHT22;2470;49.868;8.660;2024-03-08T15:06:20;22.90;36.20
4910;DHT22;2470;49.868;8.660;2024-03-08T15:08:47;22.80;36.50
4910;DHT22;2470;49.868;8.660;2024-03-08T15:11:12;22.40;37.00
4910;DHT22;2470;49.868;8.660;2024-03-08T15:13:49;22.20;37.10
4910;DHT22;2470;49.868;8.660;2024-03-08T15:16:18;21.50;37.70
4910;DHT22;2470;49.868;8.660;2024-03-08T15:18:45;20.80;38.60
4910;DHT22;2470;49.868;8.660;2024-03-08T15:21:14;20.50;39.10
4910;DHT22;2470;49.868;8.660;2024-03-08T15:23:44;20.00;38.40
4910;DHT22;2470;49.868;8.660;2024-03-08T15:26:15;19.30;39.50
4910;DHT22;2470;49.868;8.660;2024-03-08T15:28:45;18.80;40.10
4910;DHT22;2470;49.868;8.660;2024-03-08T15:31:14;18.40;40.20
4910;DHT22;2470;49.868;8.660;2024-03-08T15:33:41;18.30;41.10
4910;DHT22;2470;49.868;8.660;2024-03-08T15:36:11;19.00;40.50
4910;DHT22;2470;49.868;8.660;2024-03-08T15:38:39;19.90;40.00
4910;DHT22;2470;49.868;8.660;2024-03-08T15:41:05;19.70;39.00
4910;DHT22;2470;49.868;8.660;2024-03-08T15:43:38;19.20;39.60
4910;DHT22;2470;49.868;8.660;2024-03-08T15:46:05;19.50;39.60
4910;DHT22;2470;49.868;8.660;2024-03-08T15:48:31;19.30;39.40
4910;DHT22;2470;49.868;8.660;2024-03-08T15:50:57;18.70;39.60
4910;DHT22;2470;49.868;8.660;2024-03-08T15:53:23;18.30;40.50
4910;DHT22;2470;49.868;8.660;2024-03-08T15:55:49;18.30;40.80
4910;DHT22;2470;49.868;8.660;2024-03-08T15:58:15;18.30;40.80
4910;DHT22;2470;49.868;8.660;2024-03-08T16:00:40;17.80;41.20
4910;DHT22;2470;49.868;8.660;2024-03-08T16:03:13;17.40;41.80
4910;DHT22;2470;49.868;8.660;2024-03-08T16:05:43;17.20;42.60
4910;DHT22;2470;49.868;8.660;2024-03-08T16:08:10;17.20;42.90
4910;DHT22;2470;49.868;8.660;2024-03-08T16:10:47;17.20;42.20
4910;DHT22;2470;49.868;8.660;2024-03-08T16:13:16;16.80;42.40
4910;DHT22;2470;49.868;8.660;2024-03-08T16:15:45;16.60;43.40
4910;DHT22;2470;49.868;8.660;2024-03-08T16:18:11;16.50;43.80
4910;DHT22;2470;49.868;8.660;2024-03-08T16:20:38;16.50;43.40